sensor_id;sensor_type;location;lat;lon;timestamp;pressure;altitude;pressure_sealevel;temperature;humidity
11712;BME280;5912;51.034;6.984;2023-02-04T00:01:45;100717.38;;;2.33;88.71
11712;BME280;5912;51.034;6.984;2023-02-04T00:04:11;100713.84;;;2.34;89.08
11712;BME280;5912;51.034;6.984;2023-02-04T00:06:37;100720.13;;;2.31;89.28
11712;BME280;5912;51.034;6.984;2023-02-04T00:09:02;100716.56;;;2.32;88.86
11712;BME280;5912;51.034;6.984;2023-02-04T00:11:27;100716.44;;;2.34;88.51
11712;BME280;5912;51.034;6.984;2023-02-04T00:13:53;100723.38;;;2.33;88.57
11712;BME280;5912;51.034;6.984;2023-02-04T00:16:18;100707.81;;;2.16;88.79
11712;BME280;5912;51.034;6.984;2023-02-04T00:18:43;100724.41;;;2.23;89.18
11712;BME280;5912;51.034;6.984;2023-02-04T00:21:08;100713.69;;;2.18;88.68
11712;BME280;5912;51.034;6.984;2023-02-04T00:23:34;100735.97;;;2.28;88.84
11712;BME280;5912;51.034;6.984;2023-02-04T00:25:59;100735.44;;;2.25;88.33
11712;BME280;5912;51.034;6.984;2023-02-04T00:31:46;100749.09;;;2.27;89.28
11712;BME280;5912;51.034;6.984;2023-02-04T00:34:12;100744.06;;;2.25;89.37
11712;BME280;5912;51.034;6.984;2023-02-04T00:36:37;100743.53;;;2.22;89.28
11712;BME280;5912;51.034;6.984;2023-02-04T00:39:02;100728.19;;;2.11;89.61
11712;BME280;5912;51.034;6.984;2023-02-04T00:41:28;100740.56;;;2.17;89.08
11712;BME280;5912;51.034;6.984;2023-02-04T00:43:53;100724.13;;;2.08;89.83
11712;BME280;5912;51.034;6.984;2023-02-04T00:46:18;100738.56;;;2.11;90.24
11712;BME280;5912;51.034;6.984;2023-02-04T00:48:44;100742.47;;;2.15;89.46
11712;BME280;5912;51.034;6.984;2023-02-04T00:51:09;100734.50;;;2.08;89.54
11712;BME280;5912;51.034;6.984;2023-02-04T00:53:37;100745.34;;;2.12;87.93
11712;BME280;5912;51.034;6.984;2023-02-04T00:56:03;100717.06;;;2.01;87.55
11712;BME280;5912;51.034;6.984;2023-02-04T00:58:28;100717.56;;;2.04;87.92
11712;BME280;5912;51.034;6.984;2023-02-04T01:00:53;100735.81;;;2.12;88.01
11712;BME280;5912;51.034;6.984;2023-02-04T01:03:19;100748.34;;;2.17;87.85
11712;BME280;5912;51.034;6.984;2023-02-04T01:05:44;100750.69;;;2.10;87.63
11712;BME280;5912;51.034;6.984;2023-02-04T01:08:10;100728.97;;;1.94;87.50
11712;BME280;5912;51.034;6.984;2023-02-04T01:10:35;100762.19;;;2.08;87.45
11712;BME280;5912;51.034;6.984;2023-02-04T01:13:00;100757.00;;;2.08;87.63
11712;BME280;5912;51.034;6.984;2023-02-04T01:15:26;100769.13;;;2.07;87.63
11712;BME280;5912;51.034;6.984;2023-02-04T01:17:51;100764.78;;;2.08;87.52
11712;BME280;5912;51.034;6.984;2023-02-04T01:20:40;100770.09;;;2.06;88.22
11712;BME280;5912;51.034;6.984;2023-02-04T01:23:06;100764.38;;;2.03;88.79
11712;BME280;5912;51.034;6.984;2023-02-04T01:25:31;100774.91;;;2.01;89.44
11712;BME280;5912;51.034;6.984;2023-02-04T01:27:57;100772.44;;;2.00;89.97
11712;BME280;5912;51.034;6.984;2023-02-04T01:30:22;100774.22;;;1.99;90.51
11712;BME280;5912;51.034;6.984;2023-02-04T01:32:47;100773.56;;;1.97;90.49
11712;BME280;5912;51.034;6.984;2023-02-04T01:35:13;100763.25;;;1.88;90.81
11712;BME280;5912;51.034;6.984;2023-02-04T01:37:38;100770.09;;;2.06;90.12
11712;BME280;5912;51.034;6.984;2023-02-04T01:40:04;100764.69;;;2.00;90.18
11712;BME280;5912;51.034;6.984;2023-02-04T01:42:29;100769.41;;;2.04;90.46
11712;BME280;5912;51.034;6.984;2023-02-04T01:44:55;100786.59;;;2.05;90.57
11712;BME280;5912;51.034;6.984;2023-02-04T01:47:21;100787.72;;;2.03;90.86
11712;BME280;5912;51.034;6.984;2023-02-04T01:49:50;100793.88;;;2.02;91.25
11712;BME280;5912;51.034;6.984;2023-02-04T01:52:16;100795.09;;;1.98;91.33
11712;BME280;5912;51.034;6.984;2023-02-04T01:54:42;100793.63;;;1.95;91.53
11712;BME280;5912;51.034;6.984;2023-02-04T01:57:12;100805.47;;;1.98;91.71
11712;BME280;5912;51.034;6.984;2023-02-04T01:59:39;100786.59;;;1.88;91.95
11712;BME280;5912;51.034;6.984;2023-02-04T02:05:12;100792.88;;;1.76;92.69
11712;BME280;5912;51.034;6.984;2023-02-04T02:07:39;100805.69;;;1.77;93.20
11712;BME280;5912;51.034;6.984;2023-02-04T02:10:06;100798.75;;;1.78;92.95
11712;BME280;5912;51.034;6.984;2023-02-04T02:12:36;100814.41;;;1.86;92.79
11712;BME280;5912;51.034;6.984;2023-02-04T02:15:02;100777.94;;;1.70;92.30
11712;BME280;5912;51.034;6.984;2023-02-04T02:17:28;100807.56;;;1.85;93.21
11712;BME280;5912;51.034;6.984;2023-02-04T02:19:53;100798.19;;;1.84;93.10
11712;BME280;5912;51.034;6.984;2023-02-04T02:22:54;100806.34;;;1.89;93.41
11712;BME280;5912;51.034;6.984;2023-02-04T02:25:22;100802.38;;;1.85;93.61
11712;BME280;5912;51.034;6.984;2023-02-04T02:27:47;100806.91;;;1.83;93.26
11712;BME280;5912;51.034;6.984;2023-02-04T02:30:13;100808.69;;;1.82;94.11
11712;BME280;5912;51.034;6.984;2023-02-04T02:32:42;100810.59;;;1.80;93.75
11712;BME280;5912;51.034;6.984;2023-02-04T02:35:11;100786.56;;;1.61;93.60
11712;BME280;5912;51.034;6.984;2023-02-04T02:37:37;100825.19;;;1.81;93.80
11712;BME280;5912;51.034;6.984;2023-02-04T02:40:04;100828.88;;;1.79;94.15
11712;BME280;5912;51.034;6.984;2023-02-04T02:42:30;100829.84;;;1.78;94.03
11712;BME280;5912;51.034;6.984;2023-02-04T02:44:55;100820.72;;;1.74;94.49
11712;BME280;5912;51.034;6.984;2023-02-04T02:47:22;100820.56;;;1.75;94.47
11712;BME280;5912;51.034;6.984;2023-02-04T02:49:49;100826.72;;;1.74;93.87
11712;BME280;5912;51.034;6.984;2023-02-04T02:52:15;100828.47;;;1.74;94.28
11712;BME280;5912;51.034;6.984;2023-02-04T02:54:41;100826.03;;;1.72;93.98
11712;BME280;5912;51.034;6.984;2023-02-04T02:57:18;100828.78;;;1.71;94.05
11712;BME280;5912;51.034;6.984;2023-02-04T02:59:44;100810.56;;;1.53;94.10
11712;BME280;5912;51.034;6.984;2023-02-04T03:02:10;100831.66;;;1.68;94.23
11712;BME280;5912;51.034;6.984;2023-02-04T03:04:40;100818.72;;;1.58;94.34
11712;BME280;5912;51.034;6.984;2023-02-04T03:07:07;100835.91;;;1.59;94.61
11712;BME280;5912;51.034;6.984;2023-02-04T03:09:33;100811.66;;;1.50;94.63
11712;BME280;5912;51.034;6.984;2023-02-04T03:11:59;100821.03;;;1.61;94.45
11712;BME280;5912;51.034;6.984;2023-02-04T03:14:26;100828.94;;;1.60;94.19
11712;BME280;5912;51.034;6.984;2023-02-04T03:16:54;100832.34;;;1.60;94.72
11712;BME280;5912;51.034;6.984;2023-02-04T03:19:20;100840.28;;;1.59;94.77
11712;BME280;5912;51.034;6.984;2023-02-04T03:21:46;100841.22;;;1.58;94.66
11712;BME280;5912;51.034;6.984;2023-02-04T03:24:12;100848.97;;;1.58;94.95
11712;BME280;5912;51.034;6.984;2023-02-04T03:26:37;100850.13;;;1.45;95.07
11712;BME280;5912;51.034;6.984;2023-02-04T03:29:06;100858.72;;;1.46;95.62
11712;BME280;5912;51.034;6.984;2023-02-04T03:31:32;100856.38;;;1.52;95.38
11712;BME280;5912;51.034;6.984;2023-02-04T03:33:57;100858.72;;;1.46;95.61
11712;BME280;5912;51.034;6.984;2023-02-04T03:36:25;100833.50;;;1.29;95.45
11712;BME280;5912;51.034;6.984;2023-02-04T03:38:50;100861.84;;;1.49;95.03
11712;BME280;5912;51.034;6.984;2023-02-04T03:41:18;100859.91;;;1.51;95.33
11712;BME280;5912;51.034;6.984;2023-02-04T03:43:43;100866.75;;;1.52;95.60
11712;BME280;5912;51.034;6.984;2023-02-04T03:46:08;100837.88;;;1.28;95.72
11712;BME280;5912;51.034;6.984;2023-02-04T03:48:34;100864.03;;;1.44;96.23
11712;BME280;5912;51.034;6.984;2023-02-04T03:50:59;100834.59;;;1.36;95.78
11712;BME280;5912;51.034;6.984;2023-02-04T03:53:24;100867.69;;;1.51;95.42
11712;BME280;5912;51.034;6.984;2023-02-04T03:55:49;100875.59;;;1.50;95.15
11712;BME280;5912;51.034;6.984;2023-02-04T03:58:15;100879.00;;;1.50;95.80
11712;BME280;5912;51.034;6.984;2023-02-04T04:00:40;100867.69;;;1.42;95.85
11712;BME280;5912;51.034;6.984;2023-02-04T04:03:05;100856.94;;;1.37;95.75
11712;BME280;5912;51.034;6.984;2023-02-04T04:05:31;100870.69;;;1.47;95.77
11712;BME280;5912;51.034;6.984;2023-02-04T04:07:56;100869.50;;;1.41;95.86
11712;BME280;5912;51.034;6.984;2023-02-04T04:10:22;100871.13;;;1.42;96.57
11712;BME280;5912;51.034;6.984;2023-02-04T04:12:47;100866.34;;;1.38;96.63
11712;BME280;5912;51.034;6.984;2023-02-04T04:15:12;100869.38;;;1.33;97.12
11712;BME280;5912;51.034;6.984;2023-02-04T04:17:38;100879.31;;;1.38;96.50
11712;BME280;5912;51.034;6.984;2023-02-04T04:20:04;100865.41;;;1.29;96.49
11712;BME280;5912;51.034;6.984;2023-02-04T04:22:29;100876.03;;;1.36;96.96
11712;BME280;5912;51.034;6.984;2023-02-04T04:24:54;100881.63;;;1.31;97.43
11712;BME280;5912;51.034;6.984;2023-02-04T04:27:20;100880.25;;;1.27;97.08
11712;BME280;5912;51.034;6.984;2023-02-04T04:29:45;100887.06;;;1.28;97.65
11712;BME280;5912;51.034;6.984;2023-02-04T04:32:11;100875.34;;;1.24;97.83
11712;BME280;5912;51.034;6.984;2023-02-04T04:34:36;100879.97;;;1.21;97.63
11712;BME280;5912;51.034;6.984;2023-02-04T04:37:01;100894.84;;;1.19;98.46
11712;BME280;5912;51.034;6.984;2023-02-04T04:39:27;100896.19;;;1.13;98.32
11712;BME280;5912;51.034;6.984;2023-02-04T04:41:52;100907.94;;;1.17;98.67
11712;BME280;5912;51.034;6.984;2023-02-04T04:44:17;100906.28;;;1.16;99.04
11712;BME280;5912;51.034;6.984;2023-02-04T04:46:43;100907.94;;;1.17;98.87
11712;BME280;5912;51.034;6.984;2023-02-04T04:49:08;100918.81;;;1.21;99.40
11712;BME280;5912;51.034;6.984;2023-02-04T04:51:33;100910.25;;;1.20;99.41
11712;BME280;5912;51.034;6.984;2023-02-04T04:53:59;100906.69;;;1.21;99.21
11712;BME280;5912;51.034;6.984;2023-02-04T04:56:24;100898.25;;;1.10;99.48
11712;BME280;5912;51.034;6.984;2023-02-04T04:58:50;100922.09;;;1.23;99.28
11712;BME280;5912;51.034;6.984;2023-02-04T05:01:15;100922.22;;;1.21;99.43
11712;BME280;5912;51.034;6.984;2023-02-04T05:03:40;100917.59;;;1.25;99.68
11712;BME280;5912;51.034;6.984;2023-02-04T05:06:06;100915.97;;;1.24;99.69
11712;BME280;5912;51.034;6.984;2023-02-04T05:08:32;100914.47;;;1.21;99.75
11712;BME280;5912;51.034;6.984;2023-02-04T05:11:00;100919.34;;;1.24;99.51
11712;BME280;5912;51.034;6.984;2023-02-04T05:13:25;100925.38;;;1.25;99.78
11712;BME280;5912;51.034;6.984;2023-02-04T05:15:51;100919.50;;;1.23;100.00
11712;BME280;5912;51.034;6.984;2023-02-04T05:18:16;100922.22;;;1.21;99.90
11712;BME280;5912;51.034;6.984;2023-02-04T05:20:41;100927.69;;;1.18;99.79
11712;BME280;5912;51.034;6.984;2023-02-04T05:23:06;100919.34;;;1.15;99.83
11712;BME280;5912;51.034;6.984;2023-02-04T05:25:32;100931.38;;;1.16;99.56
11712;BME280;5912;51.034;6.984;2023-02-04T05:27:57;100940.06;;;1.15;99.79
11712;BME280;5912;51.034;6.984;2023-02-04T05:30:22;100935.16;;;1.12;99.95
11712;BME280;5912;51.034;6.984;2023-02-04T05:32:48;100943.06;;;1.10;100.00
11712;BME280;5912;51.034;6.984;2023-02-04T05:35:13;100942.38;;;1.08;100.00
11712;BME280;5912;51.034;6.984;2023-02-04T05:37:39;100943.34;;;1.07;100.00
11712;BME280;5912;51.034;6.984;2023-02-04T05:40:04;100935.72;;;1.06;100.00
11712;BME280;5912;51.034;6.984;2023-02-04T05:42:30;100936.53;;;1.06;100.00
11712;BME280;5912;51.034;6.984;2023-02-04T05:44:56;100921.66;;;0.89;100.00
11712;BME280;5912;51.034;6.984;2023-02-04T05:47:21;100952.44;;;1.02;100.00
11712;BME280;5912;51.034;6.984;2023-02-04T05:49:46;100943.19;;;0.99;100.00
11712;BME280;5912;51.034;6.984;2023-02-04T05:52:12;100950.94;;;0.99;100.00
11712;BME280;5912;51.034;6.984;2023-02-04T05:54:37;100952.84;;;0.97;100.00
11712;BME280;5912;51.034;6.984;2023-02-04T05:57:02;100958.03;;;0.97;100.00
11712;BME280;5912;51.034;6.984;2023-02-04T05:59:28;100973.84;;;1.04;100.00
11712;BME280;5912;51.034;6.984;2023-02-04T06:01:53;100967.59;;;0.97;100.00
11712;BME280;5912;51.034;6.984;2023-02-04T06:04:18;100974.81;;;1.03;100.00
11712;BME280;5912;51.034;6.984;2023-02-04T06:06:44;100976.56;;;1.02;100.00
11712;BME280;5912;51.034;6.984;2023-02-04T06:09:09;100956.66;;;0.84;100.00
11712;BME280;5912;51.034;6.984;2023-02-04T06:11:35;100995.91;;;0.98;100.00
11712;BME280;5912;51.034;6.984;2023-02-04T06:14:00;101003.69;;;0.98;100.00
11712;BME280;5912;51.034;6.984;2023-02-04T06:16:25;101004.34;;;1.00;100.00
11712;BME280;5912;51.034;6.984;2023-02-04T06:18:51;101001.88;;;0.99;100.00
11712;BME280;5912;51.034;6.984;2023-02-04T06:21:16;101002.97;;;0.96;100.00
11712;BME280;5912;51.034;6.984;2023-02-04T06:23:41;101005.84;;;0.93;100.00
11712;BME280;5912;51.034;6.984;2023-02-04T06:26:07;101008.44;;;0.93;100.00
11712;BME280;5912;51.034;6.984;2023-02-04T06:28:32;101012.91;;;0.91;100.00
11712;BME280;5912;51.034;6.984;2023-02-04T06:30:57;101012.34;;;0.88;100.00
11712;BME280;5912;51.034;6.984;2023-02-04T06:33:23;101020.25;;;0.86;100.00
11712;BME280;5912;51.034;6.984;2023-02-04T06:35:49;101021.91;;;0.87;100.00
11712;BME280;5912;51.034;6.984;2023-02-04T06:38:14;101008.94;;;0.78;100.00
11712;BME280;5912;51.034;6.984;2023-02-04T06:40:40;101018.75;;;0.84;100.00
11712;BME280;5912;51.034;6.984;2023-02-04T06:43:05;101024.06;;;0.82;100.00
11712;BME280;5912;51.034;6.984;2023-02-04T06:45:31;101026.63;;;0.82;100.00
11712;BME280;5912;51.034;6.984;2023-02-04T06:47:56;101018.59;;;0.76;100.00
11712;BME280;5912;51.034;6.984;2023-02-04T06:50:21;101013.13;;;0.69;100.00
11712;BME280;5912;51.034;6.984;2023-02-04T06:52:47;101023.50;;;0.79;100.00
11712;BME280;5912;51.034;6.984;2023-02-04T06:55:13;101022.66;;;0.78;100.00
11712;BME280;5912;51.034;6.984;2023-02-04T06:57:39;101021.16;;;0.76;100.00
11712;BME280;5912;51.034;6.984;2023-02-04T07:00:05;101025.50;;;0.75;100.00
11712;BME280;5912;51.034;6.984;2023-02-04T07:02:31;101019.78;;;0.72;100.00
11712;BME280;5912;51.034;6.984;2023-02-04T07:04:56;101027.41;;;0.73;100.00
11712;BME280;5912;51.034;6.984;2023-02-04T07:07:21;101019.78;;;0.72;100.00
11712;BME280;5912;51.034;6.984;2023-02-04T07:09:47;101029.06;;;0.74;100.00
11712;BME280;5912;51.034;6.984;2023-02-04T07:12:12;101021.56;;;0.71;100.00
11712;BME280;5912;51.034;6.984;2023-02-04T07:14:37;101026.59;;;0.73;100.00
11712;BME280;5912;51.034;6.984;2023-02-04T07:17:02;101027.41;;;0.73;100.00
11712;BME280;5912;51.034;6.984;2023-02-04T07:19:28;101029.19;;;0.73;100.00
11712;BME280;5912;51.034;6.984;2023-02-04T07:21:53;101038.72;;;0.72;100.00
11712;BME280;5912;51.034;6.984;2023-02-04T07:24:23;101026.69;;;0.62;100.00
11712;BME280;5912;51.034;6.984;2023-02-04T07:26:49;101047.31;;;0.73;100.00
11712;BME280;5912;51.034;6.984;2023-02-04T07:29:15;101047.31;;;0.73;100.00
11712;BME280;5912;51.034;6.984;2023-02-04T07:31:41;101051.66;;;0.72;100.00
11712;BME280;5912;51.034;6.984;2023-02-04T07:34:06;101049.63;;;0.76;100.00
11712;BME280;5912;51.034;6.984;2023-02-04T07:36:31;101036.25;;;0.71;100.00
11712;BME280;5912;51.034;6.984;2023-02-04T07:38:57;101063.44;;;0.86;100.00
11712;BME280;5912;51.034;6.984;2023-02-04T07:41:22;101069.84;;;0.91;100.00
11712;BME280;5912;51.034;6.984;2023-02-04T07:43:47;101072.03;;;0.96;100.00
11712;BME280;5912;51.034;6.984;2023-02-04T07:46:13;101068.38;;;0.98;100.00
11712;BME280;5912;51.034;6.984;2023-02-04T07:48:38;101061.28;;;1.00;100.00
11712;BME280;5912;51.034;6.984;2023-02-04T07:51:03;101066.78;;;1.16;100.00
11712;BME280;5912;51.034;6.984;2023-02-04T07:53:29;101080.41;;;1.18;100.00
11712;BME280;5912;51.034;6.984;2023-02-04T07:55:54;101082.47;;;1.24;100.00
11712;BME280;5912;51.034;6.984;2023-02-04T07:58:19;101058.59;;;1.11;100.00
11712;BME280;5912;51.034;6.984;2023-02-04T08:00:45;101092.03;;;1.33;100.00
11712;BME280;5912;51.034;6.984;2023-02-04T08:03:10;101075.13;;;1.29;100.00
11712;BME280;5912;51.034;6.984;2023-02-04T08:05:35;101086.19;;;1.41;100.00
11712;BME280;5912;51.034;6.984;2023-02-04T08:08:01;101090.28;;;1.43;100.00
11712;BME280;5912;51.034;6.984;2023-02-04T08:10:27;101089.22;;;1.46;100.00
11712;BME280;5912;51.034;6.984;2023-02-04T08:12:52;101087.56;;;1.45;100.00
11712;BME280;5912;51.034;6.984;2023-02-04T08:15:17;101101.75;;;1.50;100.00
11712;BME280;5912;51.034;6.984;2023-02-04T08:17:43;101093.56;;;1.55;100.00
11712;BME280;5912;51.034;6.984;2023-02-04T08:20:09;101096.03;;;1.57;100.00
11712;BME280;5912;51.034;6.984;2023-02-04T08:22:35;101099.59;;;1.65;100.00
11712;BME280;5912;51.034;6.984;2023-02-04T08:25:00;101108.03;;;1.67;100.00
11712;BME280;5912;51.034;6.984;2023-02-04T08:27:26;101100.03;;;1.80;99.96
11712;BME280;5912;51.034;6.984;2023-02-04T08:29:51;101103.69;;;1.87;99.97
11712;BME280;5912;51.034;6.984;2023-02-04T08:32:17;101100.53;;;2.02;98.93
11712;BME280;5912;51.034;6.984;2023-02-04T08:34:42;101098.22;;;1.99;98.59
11712;BME280;5912;51.034;6.984;2023-02-04T08:37:08;101088.41;;;2.03;98.11
11712;BME280;5912;51.034;6.984;2023-02-04T08:39:33;101119.09;;;2.26;97.07
11712;BME280;5912;51.034;6.984;2023-02-04T08:41:58;101124.28;;;2.36;96.97
11712;BME280;5912;51.034;6.984;2023-02-04T08:44:24;101127.13;;;2.42;96.73
11712;BME280;5912;51.034;6.984;2023-02-04T08:46:49;101123.59;;;2.53;96.96
11712;BME280;5912;51.034;6.984;2023-02-04T08:49:14;101125.75;;;2.57;96.31
11712;BME280;5912;51.034;6.984;2023-02-04T08:51:40;101132.44;;;2.60;95.59
11712;BME280;5912;51.034;6.984;2023-02-04T08:54:05;101130.81;;;2.59;95.54
11712;BME280;5912;51.034;6.984;2023-02-04T08:56:30;101133.13;;;2.62;94.18
11712;BME280;5912;51.034;6.984;2023-02-04T08:58:59;101134.75;;;2.63;94.83
11712;BME280;5912;51.034;6.984;2023-02-04T09:01:24;101129.84;;;2.60;95.01
11712;BME280;5912;51.034;6.984;2023-02-04T09:03:49;101138.03;;;2.65;94.94
11712;BME280;5912;51.034;6.984;2023-02-04T09:06:14;101139.13;;;2.72;93.91
11712;BME280;5912;51.034;6.984;2023-02-04T09:08:40;101139.13;;;2.72;94.10
11712;BME280;5912;51.034;6.984;2023-02-04T09:11:05;101145.06;;;2.82;93.34
11712;BME280;5912;51.034;6.984;2023-02-04T09:13:31;101155.44;;;2.91;93.24
11712;BME280;5912;51.034;6.984;2023-02-04T09:15:56;101155.13;;;3.04;92.89
11712;BME280;5912;51.034;6.984;2023-02-04T09:18:22;101150.19;;;3.11;92.93
11712;BME280;5912;51.034;6.984;2023-02-04T09:20:49;101149.56;;;3.26;92.56
11712;BME280;5912;51.034;6.984;2023-02-04T09:23:15;101148.97;;;3.42;91.98
11712;BME280;5912;51.034;6.984;2023-02-04T09:25:41;101125.88;;;3.39;91.80
11712;BME280;5912;51.034;6.984;2023-02-04T09:28:08;101158.97;;;3.64;90.96
11712;BME280;5912;51.034;6.984;2023-02-04T09:30:35;101164.69;;;3.67;90.93
11712;BME280;5912;51.034;6.984;2023-02-04T09:33:01;101165.03;;;3.72;89.55
11712;BME280;5912;51.034;6.984;2023-02-04T09:35:26;101163.50;;;3.79;89.74
11712;BME280;5912;51.034;6.984;2023-02-04T09:37:52;101172.06;;;3.89;89.36
11712;BME280;5912;51.034;6.984;2023-02-04T09:40:18;101175.13;;;4.02;89.14
11712;BME280;5912;51.034;6.984;2023-02-04T09:42:48;101179.34;;;4.03;88.01
11712;BME280;5912;51.034;6.984;2023-02-04T09:45:20;101156.16;;;3.92;87.92
11712;BME280;5912;51.034;6.984;2023-02-04T09:47:48;101182.34;;;4.08;86.88
11712;BME280;5912;51.034;6.984;2023-02-04T09:50:15;101182.97;;;4.10;86.69
11712;BME280;5912;51.034;6.984;2023-02-04T09:52:41;101184.88;;;4.18;86.73
11712;BME280;5912;51.034;6.984;2023-02-04T09:55:15;101179.22;;;4.22;85.84
11712;BME280;5912;51.034;6.984;2023-02-04T09:57:40;101167.84;;;4.23;85.54
11712;BME280;5912;51.034;6.984;2023-02-04T10:00:27;101191.31;;;4.31;85.50
11712;BME280;5912;51.034;6.984;2023-02-04T10:02:53;101187.47;;;4.35;84.94
11712;BME280;5912;51.034;6.984;2023-02-04T10:05:23;101181.28;;;4.36;83.97
11712;BME280;5912;51.034;6.984;2023-02-04T10:07:51;101181.75;;;4.32;84.04
11712;BME280;5912;51.034;6.984;2023-02-04T10:10:18;101192.44;;;4.46;83.83
11712;BME280;5912;51.034;6.984;2023-02-04T10:12:46;101194.44;;;4.52;83.26
11712;BME280;5912;51.034;6.984;2023-02-04T10:15:14;101196.59;;;4.57;82.58
11712;BME280;5912;51.034;6.984;2023-02-04T10:17:40;101204.25;;;4.58;82.76
11712;BME280;5912;51.034;6.984;2023-02-04T10:20:14;101208.50;;;4.60;82.48
11712;BME280;5912;51.034;6.984;2023-02-04T10:22:40;101204.91;;;4.61;82.27
11712;BME280;5912;51.034;6.984;2023-02-04T10:25:14;101204.31;;;4.67;81.91
11712;BME280;5912;51.034;6.984;2023-02-04T10:28:06;101196.72;;;4.73;81.44
11712;BME280;5912;51.034;6.984;2023-02-04T10:30:38;101205.72;;;4.79;81.33
11712;BME280;5912;51.034;6.984;2023-02-04T10:33:31;101199.06;;;4.84;81.17
11712;BME280;5912;51.034;6.984;2023-02-04T10:35:57;101181.66;;;4.85;80.74
11712;BME280;5912;51.034;6.984;2023-02-04T10:38:22;101200.47;;;4.96;78.55
11712;BME280;5912;51.034;6.984;2023-02-04T10:41:00;101197.50;;;4.91;77.58
11712;BME280;5912;51.034;6.984;2023-02-04T10:43:25;101195.91;;;4.98;78.77
11712;BME280;5912;51.034;6.984;2023-02-04T10:45:56;101199.91;;;5.10;78.29
11712;BME280;5912;51.034;6.984;2023-02-04T10:48:22;101197.38;;;5.26;78.35
11712;BME280;5912;51.034;6.984;2023-02-04T10:50:48;101202.97;;;5.39;77.10
11712;BME280;5912;51.034;6.984;2023-02-04T10:53:21;101208.34;;;5.38;75.71
11712;BME280;5912;51.034;6.984;2023-02-04T10:56:14;101204.78;;;5.39;76.02
11712;BME280;5912;51.034;6.984;2023-02-04T10:58:40;101205.75;;;5.46;77.16
11712;BME280;5912;51.034;6.984;2023-02-04T11:01:09;101196.72;;;5.58;76.90
11712;BME280;5912;51.034;6.984;2023-02-04T11:03:36;101199.34;;;5.66;76.47
11712;BME280;5912;51.034;6.984;2023-02-04T11:06:09;101213.38;;;5.73;75.88
11712;BME280;5912;51.034;6.984;2023-02-04T11:08:36;101209.66;;;5.75;75.63
11712;BME280;5912;51.034;6.984;2023-02-04T11:11:23;101206.63;;;5.88;75.25
11712;BME280;5912;51.034;6.984;2023-02-04T11:18:49;101203.25;;;6.12;72.70
11712;BME280;5912;51.034;6.984;2023-02-04T11:23:46;101213.34;;;6.07;72.26
11712;BME280;5912;51.034;6.984;2023-02-04T11:26:14;101206.84;;;6.03;71.97
11712;BME280;5912;51.034;6.984;2023-02-04T11:34:01;101202.31;;;5.71;71.90
11712;BME280;5912;51.034;6.984;2023-02-04T11:36:27;101198.19;;;5.60;73.23
11712;BME280;5912;51.034;6.984;2023-02-04T11:38:52;101200.47;;;5.63;74.04
11712;BME280;5912;51.034;6.984;2023-02-04T11:41:27;101199.03;;;5.69;73.80
11712;BME280;5912;51.034;6.984;2023-02-04T11:43:54;101203.78;;;5.73;72.40
11712;BME280;5912;51.034;6.984;2023-02-04T11:46:20;101202.31;;;5.79;72.47
11712;BME280;5912;51.034;6.984;2023-02-04T11:48:51;101199.78;;;5.95;72.35
11712;BME280;5912;51.034;6.984;2023-02-04T11:51:20;101169.44;;;5.94;71.52
11712;BME280;5912;51.034;6.984;2023-02-04T11:53:51;101184.31;;;6.10;69.57
11712;BME280;5912;51.034;6.984;2023-02-04T11:56:18;101214.84;;;6.25;68.57
11712;BME280;5912;51.034;6.984;2023-02-04T11:58:43;101217.47;;;6.17;69.07
11712;BME280;5912;51.034;6.984;2023-02-04T12:01:19;101220.72;;;6.19;68.88
11712;BME280;5912;51.034;6.984;2023-02-04T12:03:50;101214.53;;;6.28;70.17
11712;BME280;5912;51.034;6.984;2023-02-04T12:06:22;101200.19;;;6.32;70.58
11712;BME280;5912;51.034;6.984;2023-02-04T12:08:47;101209.81;;;6.56;69.27
11712;BME280;5912;51.034;6.984;2023-02-04T12:11:33;101207.53;;;6.69;68.14
11712;BME280;5912;51.034;6.984;2023-02-04T12:14:07;101206.25;;;6.65;67.51
11712;BME280;5912;51.034;6.984;2023-02-04T12:16:49;101197.91;;;6.61;67.78
11712;BME280;5912;51.034;6.984;2023-02-04T12:19:17;101211.63;;;6.55;67.10
11712;BME280;5912;51.034;6.984;2023-02-04T12:21:43;101203.63;;;6.49;67.01
11712;BME280;5912;51.034;6.984;2023-02-04T12:24:08;101208.19;;;6.55;67.63
11712;BME280;5912;51.034;6.984;2023-02-04T12:26:33;101212.25;;;6.57;66.53
11712;BME280;5912;51.034;6.984;2023-02-04T12:28:59;101193.50;;;6.38;65.67
11712;BME280;5912;51.034;6.984;2023-02-04T12:31:27;101217.16;;;6.44;66.28
11712;BME280;5912;51.034;6.984;2023-02-04T12:33:53;101207.53;;;6.53;66.33
11712;BME280;5912;51.034;6.984;2023-02-04T12:36:18;101211.63;;;6.63;66.31
11712;BME280;5912;51.034;6.984;2023-02-04T12:38:44;101211.31;;;6.74;65.90
11712;BME280;5912;51.034;6.984;2023-02-04T12:41:09;101196.75;;;6.80;65.11
11712;BME280;5912;51.034;6.984;2023-02-04T12:43:34;101203.13;;;6.85;62.74
11712;BME280;5912;51.034;6.984;2023-02-04T12:46:00;101200.03;;;6.74;63.18
11712;BME280;5912;51.034;6.984;2023-02-04T12:48:25;101209.97;;;6.70;63.78
11712;BME280;5912;51.034;6.984;2023-02-04T12:50:50;101200.03;;;6.66;64.01
11712;BME280;5912;51.034;6.984;2023-02-04T12:53:16;101206.41;;;6.55;63.18
11712;BME280;5912;51.034;6.984;2023-02-04T12:55:41;101204.09;;;6.52;63.70
11712;BME280;5912;51.034;6.984;2023-02-04T12:58:06;101210.47;;;6.50;63.70
11712;BME280;5912;51.034;6.984;2023-02-04T13:00:32;101205.09;;;6.59;64.07
11712;BME280;5912;51.034;6.984;2023-02-04T13:02:57;101201.16;;;6.71;64.16
11712;BME280;5912;51.034;6.984;2023-02-04T13:05:23;101202.47;;;6.83;64.23
11712;BME280;5912;51.034;6.984;2023-02-04T13:07:51;101195.44;;;6.92;63.62
11712;BME280;5912;51.034;6.984;2023-02-04T13:10:17;101197.38;;;6.98;61.73
11712;BME280;5912;51.034;6.984;2023-02-04T13:12:42;101185.28;;;6.89;60.16
11712;BME280;5912;51.034;6.984;2023-02-04T13:15:09;101188.72;;;6.97;61.11
11712;BME280;5912;51.034;6.984;2023-02-04T13:17:35;101175.47;;;6.99;60.33
11712;BME280;5912;51.034;6.984;2023-02-04T13:20:00;101184.63;;;7.11;60.00
11712;BME280;5912;51.034;6.984;2023-02-04T13:22:26;101193.56;;;7.24;60.06
11712;BME280;5912;51.034;6.984;2023-02-04T13:24:52;101200.03;;;7.36;58.82